TENO2: Tenkiller Lake

Data processed at Sun Dec 10 2017 23:31


All information presented herein is the property of the government of the United States of America and may be revised or deleted at any time without prior notice.
Dissemination of this information without the expressed written consent of the Public Affairs Office, Tulsa District U.S. Army Corps of Engineers is strictly prohibited.
These data are gathered electronically and, as presented, have not undergone any form of quality control. These data are not guaranteed to be valid or correct.
Go to home page.
Go to station list.

Upstream stations:

Downstream station:
Previous Day
Next Day
Current Day
    
SHEF ID:       TENO2     Tenkiller Lake
STATION TYPE:  Reservoir
Normal Pool:  Bottom =   594.50, Top =   632.00

               PRECIP PRECIP(A) ELEVATION   STORAGE   TW-ELEV    INFLOW   RELEASE  AIR-TEMP  WIND-DIRWIND-SPEED REL-HUMID SOLAR-RAD   VOLTAGE  BAT-LOAD
                   in        in        ft     ac-ft        ft       cfs       cfs         F       deg       mph         %      W/m2      volt      volt
              Ccp-Rev   Ccp-Rev   Ccp-Rev   Ccp-Rev   Ccp-Rev  Regi-Rev  Regi-Rev   Ccp-Rev   Ccp-Rev   Ccp-Rev   Ccp-Rev   Ccp-Rev   Ccp-Rev   Ccp-Rev
(US/Central)
12/08 00:00      0.00      0.00    629.38    635056    482.10         1         0     22.96    240.80      0.48     87.90      1.00     13.74     13.12
12/08 01:00      0.00      0.00    629.40    635304    482.08      -901      -901     21.09    216.70      0.59     91.69      1.00     13.74     13.12
12/08 02:00      0.00      0.00    629.38    635056    482.07      -901      -901     19.44    226.20      0.34     90.71      1.00     13.74     13.12
12/08 03:00      0.00      0.00    629.41    635428    482.07      -901      -901     18.34    163.10      0.37     89.37      1.00     13.75     13.12
12/08 04:00      0.00      0.00    629.41    635428    482.07      -901      -901     17.80    189.30      0.30     93.58      0.00     13.74     13.12
12/08 05:00      0.00      0.00    629.39    635180    482.06      -901      -901     16.81    207.40      0.31     93.21      0.00     13.74     13.18
12/08 06:00      0.00      0.00    629.40    635304    483.51      -901      -901     16.03    174.90      0.38     96.02      0.00     13.74     13.18
12/08 07:00      0.00      0.00    629.38    635056    486.84      -901      -901     15.60    145.20      0.51     96.75      1.00     13.73     13.18
12/08 08:00      0.00      0.00    629.35    634684    487.02      -901      -901     17.35    124.30      0.48     97.12      9.00     13.73     13.18
12/08 09:00      0.00      0.00    629.32    634312    487.00      -901      -901     22.96    119.10      0.77     84.73    120.00     13.74     13.12
12/08 10:00      0.00      0.00    629.29    633941    486.50      -901      -901     30.22    231.30      0.81     65.38    357.00     13.73     13.18
12/08 11:00      0.00      0.00    629.30    634065    482.51      -901      -901     33.30    234.40      1.98     41.69    475.00     13.74     13.18
12/08 12:00      0.00      0.00    629.29    633941    482.14      -901      -901     35.92    242.70      1.57     37.05    544.00     13.74     13.18
12/08 13:00      0.00      0.00    629.31    634189    482.10      -901      -901     37.80    234.20      1.33     31.13    370.00     13.74     13.18
12/08 14:00      0.00      0.00    629.29    633941    482.07      -901      -901     40.66    224.40      1.08     29.67    488.00     13.73     13.18
12/08 15:00      0.00      0.00    629.30    634065    482.06      -901      -901     41.76    198.30      1.56     26.92    384.00     13.74     13.18
12/08 16:00      0.00      0.00    629.31    634189    482.06      -901      -901     43.07    213.20      1.43     24.42    239.00     13.74     13.18
12/08 17:00      0.00      0.00    629.30    634065    482.05      -901      -901     39.54    204.50      1.13     36.32     38.00     13.74     13.12
12/08 18:00      0.00      0.00    629.29    633941    483.46      -901      -901     33.94    172.80      0.37     50.18      2.00     13.73     13.24
12/08 19:00      0.00      0.00    629.29    633941    486.89      -901      -901     32.07    143.30      0.41     63.30      1.00     13.73     13.18
12/08 20:00      0.00      0.00    629.26    633569    487.00      -901      -901     31.86    141.20      0.39     73.50      1.00     13.74     13.18
12/08 21:00      0.00      0.00    629.23    633197    486.57      -901      -901     29.98    147.20      0.39     82.10      0.00     13.73     13.18
12/08 22:00      0.00      0.00    629.24    633321    482.50      -901      -901     28.13    160.80      0.38     82.90      1.00     13.73     13.18
12/08 23:00      0.00      0.00    629.23    633197    482.14      -901      -901     27.03    156.60      0.35     87.66      1.00     13.73     13.18